sensor_id;sensor_type;location;lat;lon;timestamp;P1;durP1;ratioP1;P2;durP2;ratioP2
42724;SDS011;28369;44.046;23.014;2022-08-21T00:00:54;38.75;;;25.77;;
42724;SDS011;28369;44.046;23.014;2022-08-21T00:03:20;38.30;;;22.77;;
42724;SDS011;28369;44.046;23.014;2022-08-21T00:05:48;28.70;;;24.33;;
42724;SDS011;28369;44.046;23.014;2022-08-21T00:08:15;28.60;;;21.10;;
42724;SDS011;28369;44.046;23.014;2022-08-21T00:10:42;55.35;;;43.60;;
42724;SDS011;28369;44.046;23.014;2022-08-21T00:13:09;39.45;;;34.97;;
42724;SDS011;28369;44.046;23.014;2022-08-21T00:15:36;51.53;;;42.22;;
42724;SDS011;28369;44.046;23.014;2022-08-21T00:18:03;51.42;;;43.08;;
42724;SDS011;28369;44.046;23.014;2022-08-21T00:20:30;32.50;;;23.52;;
42724;SDS011;28369;44.046;23.014;2022-08-21T00:22:56;29.85;;;19.02;;
42724;SDS011;28369;44.046;23.014;2022-08-21T00:25:22;21.15;;;17.98;;
42724;SDS011;28369;44.046;23.014;2022-08-21T00:27:48;31.58;;;19.20;;
42724;SDS011;28369;44.046;23.014;2022-08-21T00:30:15;27.13;;;18.30;;
42724;SDS011;28369;44.046;23.014;2022-08-21T00:32:43;26.38;;;17.77;;
42724;SDS011;28369;44.046;23.014;2022-08-21T00:35:10;23.88;;;18.20;;
42724;SDS011;28369;44.046;23.014;2022-08-21T00:37:39;36.85;;;25.48;;
42724;SDS011;28369;44.046;23.014;2022-08-21T00:40:07;34.10;;;29.05;;
42724;SDS011;28369;44.046;23.014;2022-08-21T00:42:36;32.05;;;26.77;;
42724;SDS011;28369;44.046;23.014;2022-08-21T00:45:03;25.63;;;18.60;;
42724;SDS011;28369;44.046;23.014;2022-08-21T00:47:29;28.08;;;20.33;;
42724;SDS011;28369;44.046;23.014;2022-08-21T00:49:55;30.70;;;20.05;;
42724;SDS011;28369;44.046;23.014;2022-08-21T00:52:22;26.42;;;18.02;;
42724;SDS011;28369;44.046;23.014;2022-08-21T00:54:51;24.05;;;18.83;;
42724;SDS011;28369;44.046;23.014;2022-08-21T00:57:20;25.45;;;18.13;;
42724;SDS011;28369;44.046;23.014;2022-08-21T00:59:51;26.63;;;18.25;;
42724;SDS011;28369;44.046;23.014;2022-08-21T01:02:20;27.00;;;20.47;;
42724;SDS011;28369;44.046;23.014;2022-08-21T01:04:46;27.67;;;19.88;;
42724;SDS011;28369;44.046;23.014;2022-08-21T01:07:13;26.60;;;19.15;;
42724;SDS011;28369;44.046;23.014;2022-08-21T01:09:38;28.35;;;20.40;;
42724;SDS011;28369;44.046;23.014;2022-08-21T01:12:05;23.90;;;19.17;;
42724;SDS011;28369;44.046;23.014;2022-08-21T01:14:31;22.95;;;17.63;;
42724;SDS011;28369;44.046;23.014;2022-08-21T01:16:57;85.80;;;76.95;;
42724;SDS011;28369;44.046;23.014;2022-08-21T01:19:24;27.73;;;18.95;;
42724;SDS011;28369;44.046;23.014;2022-08-21T01:21:50;26.40;;;18.40;;
42724;SDS011;28369;44.046;23.014;2022-08-21T01:24:16;26.27;;;18.65;;
42724;SDS011;28369;44.046;23.014;2022-08-21T01:26:42;27.58;;;18.58;;
42724;SDS011;28369;44.046;23.014;2022-08-21T01:31:52;20.52;;;16.42;;
42724;SDS011;28369;44.046;23.014;2022-08-21T01:34:18;24.08;;;18.30;;
42724;SDS011;28369;44.046;23.014;2022-08-21T01:36:44;26.75;;;17.95;;
42724;SDS011;28369;44.046;23.014;2022-08-21T01:39:11;25.02;;;17.58;;
42724;SDS011;28369;44.046;23.014;2022-08-21T01:41:36;21.73;;;17.92;;
42724;SDS011;28369;44.046;23.014;2022-08-21T01:44:02;23.75;;;18.85;;
42724;SDS011;28369;44.046;23.014;2022-08-21T01:46:28;21.60;;;18.27;;
42724;SDS011;28369;44.046;23.014;2022-08-21T01:48:54;26.05;;;19.38;;
42724;SDS011;28369;44.046;23.014;2022-08-21T01:51:20;26.77;;;18.60;;
42724;SDS011;28369;44.046;23.014;2022-08-21T01:53:45;30.20;;;20.85;;
42724;SDS011;28369;44.046;23.014;2022-08-21T01:56:11;28.17;;;19.30;;
42724;SDS011;28369;44.046;23.014;2022-08-21T01:58:41;31.98;;;20.45;;
42724;SDS011;28369;44.046;23.014;2022-08-21T02:01:09;25.80;;;17.88;;
42724;SDS011;28369;44.046;23.014;2022-08-21T02:03:35;35.50;;;27.70;;
42724;SDS011;28369;44.046;23.014;2022-08-21T02:06:03;34.85;;;25.48;;
42724;SDS011;28369;44.046;23.014;2022-08-21T02:08:30;33.70;;;22.73;;
42724;SDS011;28369;44.046;23.014;2022-08-21T02:10:56;29.08;;;22.05;;
42724;SDS011;28369;44.046;23.014;2022-08-21T02:13:21;28.00;;;20.15;;
42724;SDS011;28369;44.046;23.014;2022-08-21T02:15:47;27.77;;;20.73;;
42724;SDS011;28369;44.046;23.014;2022-08-21T02:18:13;27.42;;;22.05;;
42724;SDS011;28369;44.046;23.014;2022-08-21T02:20:40;28.17;;;21.58;;
42724;SDS011;28369;44.046;23.014;2022-08-21T02:23:08;33.00;;;25.27;;
42724;SDS011;28369;44.046;23.014;2022-08-21T02:25:35;36.78;;;22.20;;
42724;SDS011;28369;44.046;23.014;2022-08-21T02:28:03;29.80;;;20.70;;
42724;SDS011;28369;44.046;23.014;2022-08-21T02:30:32;28.25;;;21.98;;
42724;SDS011;28369;44.046;23.014;2022-08-21T02:33:00;47.40;;;41.58;;
42724;SDS011;28369;44.046;23.014;2022-08-21T02:35:26;30.23;;;22.83;;
42724;SDS011;28369;44.046;23.014;2022-08-21T02:37:53;27.88;;;21.20;;
42724;SDS011;28369;44.046;23.014;2022-08-21T02:40:22;32.15;;;22.17;;
42724;SDS011;28369;44.046;23.014;2022-08-21T02:42:51;30.60;;;19.88;;
42724;SDS011;28369;44.046;23.014;2022-08-21T02:45:17;29.27;;;19.27;;
42724;SDS011;28369;44.046;23.014;2022-08-21T02:47:48;26.77;;;20.75;;
42724;SDS011;28369;44.046;23.014;2022-08-21T02:50:17;31.75;;;20.00;;
42724;SDS011;28369;44.046;23.014;2022-08-21T02:52:44;25.33;;;19.80;;
42724;SDS011;28369;44.046;23.014;2022-08-21T02:55:10;23.05;;;18.70;;
42724;SDS011;28369;44.046;23.014;2022-08-21T02:57:36;38.00;;;29.80;;
42724;SDS011;28369;44.046;23.014;2022-08-21T03:00:03;58.10;;;47.90;;
42724;SDS011;28369;44.046;23.014;2022-08-21T03:02:30;30.05;;;22.67;;
42724;SDS011;28369;44.046;23.014;2022-08-21T03:04:55;24.55;;;20.65;;
42724;SDS011;28369;44.046;23.014;2022-08-21T03:07:21;24.85;;;19.42;;
42724;SDS011;28369;44.046;23.014;2022-08-21T03:09:47;38.40;;;29.00;;
42724;SDS011;28369;44.046;23.014;2022-08-21T03:12:13;45.05;;;33.25;;
42724;SDS011;28369;44.046;23.014;2022-08-21T03:14:38;29.10;;;21.52;;
42724;SDS011;28369;44.046;23.014;2022-08-21T03:17:04;29.80;;;21.77;;
42724;SDS011;28369;44.046;23.014;2022-08-21T03:19:30;27.27;;;20.85;;
42724;SDS011;28369;44.046;23.014;2022-08-21T03:21:56;23.40;;;20.23;;
42724;SDS011;28369;44.046;23.014;2022-08-21T03:24:21;39.55;;;29.52;;
42724;SDS011;28369;44.046;23.014;2022-08-21T03:26:47;39.72;;;27.95;;
42724;SDS011;28369;44.046;23.014;2022-08-21T03:29:12;29.13;;;22.23;;
42724;SDS011;28369;44.046;23.014;2022-08-21T03:31:38;28.50;;;22.17;;
42724;SDS011;28369;44.046;23.014;2022-08-21T03:34:04;31.13;;;25.27;;
42724;SDS011;28369;44.046;23.014;2022-08-21T03:36:30;28.55;;;21.65;;
42724;SDS011;28369;44.046;23.014;2022-08-21T03:38:55;29.50;;;22.33;;
42724;SDS011;28369;44.046;23.014;2022-08-21T03:41:21;27.85;;;21.88;;
42724;SDS011;28369;44.046;23.014;2022-08-21T03:43:47;30.52;;;21.65;;
42724;SDS011;28369;44.046;23.014;2022-08-21T03:46:13;25.70;;;21.88;;
42724;SDS011;28369;44.046;23.014;2022-08-21T03:48:39;27.40;;;20.83;;
42724;SDS011;28369;44.046;23.014;2022-08-21T03:51:05;35.05;;;21.73;;
42724;SDS011;28369;44.046;23.014;2022-08-21T03:53:32;27.13;;;21.23;;
42724;SDS011;28369;44.046;23.014;2022-08-21T03:55:57;33.58;;;22.77;;
42724;SDS011;28369;44.046;23.014;2022-08-21T03:58:26;33.33;;;24.88;;
42724;SDS011;28369;44.046;23.014;2022-08-21T04:00:54;27.50;;;23.33;;
42724;SDS011;28369;44.046;23.014;2022-08-21T04:03:21;32.63;;;23.95;;
42724;SDS011;28369;44.046;23.014;2022-08-21T04:05:47;25.95;;;23.17;;
42724;SDS011;28369;44.046;23.014;2022-08-21T04:08:14;29.70;;;24.35;;
42724;SDS011;28369;44.046;23.014;2022-08-21T04:10:44;33.00;;;24.77;;
42724;SDS011;28369;44.046;23.014;2022-08-21T04:13:11;34.03;;;24.67;;
42724;SDS011;28369;44.046;23.014;2022-08-21T04:15:37;28.60;;;22.65;;
42724;SDS011;28369;44.046;23.014;2022-08-21T04:18:03;32.30;;;23.55;;
42724;SDS011;28369;44.046;23.014;2022-08-21T04:20:30;31.52;;;20.67;;
42724;SDS011;28369;44.046;23.014;2022-08-21T04:22:56;29.65;;;20.50;;
42724;SDS011;28369;44.046;23.014;2022-08-21T04:25:22;40.67;;;18.58;;
42724;SDS011;28369;44.046;23.014;2022-08-21T04:27:48;24.67;;;17.52;;
42724;SDS011;28369;44.046;23.014;2022-08-21T04:30:14;21.67;;;15.98;;
42724;SDS011;28369;44.046;23.014;2022-08-21T04:32:47;21.17;;;16.42;;
42724;SDS011;28369;44.046;23.014;2022-08-21T04:35:16;20.90;;;15.48;;
42724;SDS011;28369;44.046;23.014;2022-08-21T04:40:12;21.60;;;14.32;;
42724;SDS011;28369;44.046;23.014;2022-08-21T04:42:49;15.93;;;13.15;;
42724;SDS011;28369;44.046;23.014;2022-08-21T04:45:26;19.40;;;12.30;;
42724;SDS011;28369;44.046;23.014;2022-08-21T04:47:55;17.92;;;11.73;;
42724;SDS011;28369;44.046;23.014;2022-08-21T04:50:28;16.00;;;10.18;;
42724;SDS011;28369;44.046;23.014;2022-08-21T04:52:59;14.48;;;8.75;;
42724;SDS011;28369;44.046;23.014;2022-08-21T04:55:25;17.08;;;10.30;;
42724;SDS011;28369;44.046;23.014;2022-08-21T05:00:48;16.50;;;8.80;;
42724;SDS011;28369;44.046;23.014;2022-08-21T05:03:16;13.82;;;8.88;;
42724;SDS011;28369;44.046;23.014;2022-08-21T05:05:42;17.98;;;8.88;;
42724;SDS011;28369;44.046;23.014;2022-08-21T05:08:09;11.07;;;6.10;;
42724;SDS011;28369;44.046;23.014;2022-08-21T05:13:05;12.65;;;7.55;;
42724;SDS011;28369;44.046;23.014;2022-08-21T05:15:32;11.50;;;6.97;;
42724;SDS011;28369;44.046;23.014;2022-08-21T05:17:57;9.80;;;6.40;;
42724;SDS011;28369;44.046;23.014;2022-08-21T05:20:23;10.52;;;6.88;;
42724;SDS011;28369;44.046;23.014;2022-08-21T05:22:48;8.40;;;6.03;;
42724;SDS011;28369;44.046;23.014;2022-08-21T05:25:14;8.45;;;5.90;;
42724;SDS011;28369;44.046;23.014;2022-08-21T05:27:41;9.95;;;5.95;;
42724;SDS011;28369;44.046;23.014;2022-08-21T05:30:07;11.90;;;6.13;;
42724;SDS011;28369;44.046;23.014;2022-08-21T05:32:35;9.55;;;5.88;;
42724;SDS011;28369;44.046;23.014;2022-08-21T05:35:01;9.32;;;6.05;;
42724;SDS011;28369;44.046;23.014;2022-08-21T05:37:28;9.13;;;6.43;;
42724;SDS011;28369;44.046;23.014;2022-08-21T05:39:53;12.52;;;6.38;;
42724;SDS011;28369;44.046;23.014;2022-08-21T05:42:19;12.18;;;5.95;;
42724;SDS011;28369;44.046;23.014;2022-08-21T05:44:44;11.27;;;5.43;;
42724;SDS011;28369;44.046;23.014;2022-08-21T05:47:10;9.85;;;5.40;;
42724;SDS011;28369;44.046;23.014;2022-08-21T05:49:36;7.03;;;4.82;;
42724;SDS011;28369;44.046;23.014;2022-08-21T05:52:02;10.77;;;5.50;;
42724;SDS011;28369;44.046;23.014;2022-08-21T05:54:28;11.20;;;5.25;;
42724;SDS011;28369;44.046;23.014;2022-08-21T05:56:54;11.23;;;5.53;;
42724;SDS011;28369;44.046;23.014;2022-08-21T05:59:20;8.02;;;5.05;;
42724;SDS011;28369;44.046;23.014;2022-08-21T06:01:46;9.52;;;5.53;;
42724;SDS011;28369;44.046;23.014;2022-08-21T06:04:12;9.18;;;6.10;;
42724;SDS011;28369;44.046;23.014;2022-08-21T06:06:37;10.35;;;7.22;;
42724;SDS011;28369;44.046;23.014;2022-08-21T06:09:03;11.93;;;6.72;;
42724;SDS011;28369;44.046;23.014;2022-08-21T06:11:29;10.93;;;6.22;;
42724;SDS011;28369;44.046;23.014;2022-08-21T06:13:56;10.43;;;7.05;;
42724;SDS011;28369;44.046;23.014;2022-08-21T06:16:22;10.93;;;6.20;;
42724;SDS011;28369;44.046;23.014;2022-08-21T06:18:49;12.10;;;6.60;;
42724;SDS011;28369;44.046;23.014;2022-08-21T06:21:14;10.10;;;6.15;;
42724;SDS011;28369;44.046;23.014;2022-08-21T06:23:41;8.45;;;6.28;;
42724;SDS011;28369;44.046;23.014;2022-08-21T06:26:07;9.98;;;5.18;;
42724;SDS011;28369;44.046;23.014;2022-08-21T06:28:34;12.68;;;6.22;;
42724;SDS011;28369;44.046;23.014;2022-08-21T06:31:09;10.55;;;6.05;;
42724;SDS011;28369;44.046;23.014;2022-08-21T06:33:38;10.43;;;6.05;;
42724;SDS011;28369;44.046;23.014;2022-08-21T06:36:04;10.45;;;6.00;;
42724;SDS011;28369;44.046;23.014;2022-08-21T06:38:30;17.67;;;7.00;;
42724;SDS011;28369;44.046;23.014;2022-08-21T06:40:55;11.27;;;6.72;;
42724;SDS011;28369;44.046;23.014;2022-08-21T06:43:21;11.02;;;7.35;;
42724;SDS011;28369;44.046;23.014;2022-08-21T06:45:46;13.85;;;7.10;;
42724;SDS011;28369;44.046;23.014;2022-08-21T06:48:12;10.23;;;7.05;;
42724;SDS011;28369;44.046;23.014;2022-08-21T06:50:37;11.68;;;7.45;;
42724;SDS011;28369;44.046;23.014;2022-08-21T06:53:05;11.07;;;6.25;;
42724;SDS011;28369;44.046;23.014;2022-08-21T06:55:35;12.80;;;6.43;;
42724;SDS011;28369;44.046;23.014;2022-08-21T06:58:01;12.10;;;6.00;;
42724;SDS011;28369;44.046;23.014;2022-08-21T07:00:27;9.45;;;5.90;;
42724;SDS011;28369;44.046;23.014;2022-08-21T07:02:53;15.07;;;6.15;;
42724;SDS011;28369;44.046;23.014;2022-08-21T07:05:18;6.95;;;5.43;;
42724;SDS011;28369;44.046;23.014;2022-08-21T07:07:44;10.80;;;6.10;;
42724;SDS011;28369;44.046;23.014;2022-08-21T07:10:11;10.77;;;6.03;;
42724;SDS011;28369;44.046;23.014;2022-08-21T07:12:36;12.93;;;6.97;;
42724;SDS011;28369;44.046;23.014;2022-08-21T07:15:02;8.63;;;5.90;;
42724;SDS011;28369;44.046;23.014;2022-08-21T07:17:28;8.32;;;5.55;;
42724;SDS011;28369;44.046;23.014;2022-08-21T07:19:54;11.80;;;6.38;;
42724;SDS011;28369;44.046;23.014;2022-08-21T07:22:19;9.02;;;5.65;;
42724;SDS011;28369;44.046;23.014;2022-08-21T07:24:45;10.95;;;5.82;;
42724;SDS011;28369;44.046;23.014;2022-08-21T07:27:12;12.20;;;5.85;;
42724;SDS011;28369;44.046;23.014;2022-08-21T07:29:37;11.80;;;6.13;;
42724;SDS011;28369;44.046;23.014;2022-08-21T07:32:03;13.32;;;6.55;;
42724;SDS011;28369;44.046;23.014;2022-08-21T07:34:30;12.95;;;6.78;;
42724;SDS011;28369;44.046;23.014;2022-08-21T07:36:56;14.23;;;7.18;;
42724;SDS011;28369;44.046;23.014;2022-08-21T07:39:22;11.32;;;6.78;;
42724;SDS011;28369;44.046;23.014;2022-08-21T07:41:47;9.57;;;6.95;;
42724;SDS011;28369;44.046;23.014;2022-08-21T07:44:13;13.93;;;8.27;;
42724;SDS011;28369;44.046;23.014;2022-08-21T07:46:39;14.02;;;9.02;;
42724;SDS011;28369;44.046;23.014;2022-08-21T07:49:04;28.25;;;19.23;;
42724;SDS011;28369;44.046;23.014;2022-08-21T07:51:30;12.75;;;7.22;;
42724;SDS011;28369;44.046;23.014;2022-08-21T07:53:56;14.85;;;8.52;;
42724;SDS011;28369;44.046;23.014;2022-08-21T07:56:24;17.77;;;10.90;;
42724;SDS011;28369;44.046;23.014;2022-08-21T07:58:49;12.60;;;6.57;;
42724;SDS011;28369;44.046;23.014;2022-08-21T08:01:15;9.40;;;6.07;;
42724;SDS011;28369;44.046;23.014;2022-08-21T08:03:40;13.02;;;6.57;;
42724;SDS011;28369;44.046;23.014;2022-08-21T08:06:06;13.20;;;6.82;;
42724;SDS011;28369;44.046;23.014;2022-08-21T08:08:37;10.73;;;6.95;;
42724;SDS011;28369;44.046;23.014;2022-08-21T08:11:05;12.90;;;6.50;;
42724;SDS011;28369;44.046;23.014;2022-08-21T08:13:31;11.30;;;6.82;;
42724;SDS011;28369;44.046;23.014;2022-08-21T08:15:57;10.23;;;6.18;;
42724;SDS011;28369;44.046;23.014;2022-08-21T08:18:22;9.75;;;6.30;;
42724;SDS011;28369;44.046;23.014;2022-08-21T08:20:48;14.00;;;6.22;;
42724;SDS011;28369;44.046;23.014;2022-08-21T08:23:14;8.77;;;5.80;;
42724;SDS011;28369;44.046;23.014;2022-08-21T08:25:40;11.35;;;6.13;;
42724;SDS011;28369;44.046;23.014;2022-08-21T08:28:07;13.18;;;6.50;;
42724;SDS011;28369;44.046;23.014;2022-08-21T08:30:33;10.75;;;6.00;;
42724;SDS011;28369;44.046;23.014;2022-08-21T08:32:59;15.60;;;6.97;;
42724;SDS011;28369;44.046;23.014;2022-08-21T08:35:25;13.02;;;6.28;;
42724;SDS011;28369;44.046;23.014;2022-08-21T08:37:51;9.90;;;6.03;;
42724;SDS011;28369;44.046;23.014;2022-08-21T08:40:22;12.98;;;6.70;;
42724;SDS011;28369;44.046;23.014;2022-08-21T08:42:57;12.80;;;6.67;;
42724;SDS011;28369;44.046;23.014;2022-08-21T08:45:22;19.08;;;6.70;;
42724;SDS011;28369;44.046;23.014;2022-08-21T08:47:52;13.75;;;6.68;;
42724;SDS011;28369;44.046;23.014;2022-08-21T08:53:27;10.35;;;6.65;;
42724;SDS011;28369;44.046;23.014;2022-08-21T08:55:57;10.45;;;6.35;;
42724;SDS011;28369;44.046;23.014;2022-08-21T08:58:23;14.15;;;6.72;;
42724;SDS011;28369;44.046;23.014;2022-08-21T09:00:53;10.40;;;6.50;;
42724;SDS011;28369;44.046;23.014;2022-08-21T09:03:20;11.95;;;6.70;;
42724;SDS011;28369;44.046;23.014;2022-08-21T09:05:49;11.63;;;6.85;;
42724;SDS011;28369;44.046;23.014;2022-08-21T09:08:42;12.55;;;6.40;;
42724;SDS011;28369;44.046;23.014;2022-08-21T09:22:19;8.50;;;5.55;;
42724;SDS011;28369;44.046;23.014;2022-08-21T09:25:08;10.18;;;5.82;;
42724;SDS011;28369;44.046;23.014;2022-08-21T09:27:41;11.48;;;6.35;;
42724;SDS011;28369;44.046;23.014;2022-08-21T09:30:07;7.38;;;5.65;;
42724;SDS011;28369;44.046;23.014;2022-08-21T09:32:34;8.65;;;5.55;;
42724;SDS011;28369;44.046;23.014;2022-08-21T09:40:40;11.25;;;6.18;;
42724;SDS011;28369;44.046;23.014;2022-08-21T09:43:16;8.38;;;5.47;;
42724;SDS011;28369;44.046;23.014;2022-08-21T09:45:44;13.20;;;6.05;;
42724;SDS011;28369;44.046;23.014;2022-08-21T09:50:39;8.25;;;5.53;;
42724;SDS011;28369;44.046;23.014;2022-08-21T09:53:14;10.43;;;5.47;;
42724;SDS011;28369;44.046;23.014;2022-08-21T09:58:41;7.57;;;5.30;;
42724;SDS011;28369;44.046;23.014;2022-08-21T10:01:13;13.60;;;6.03;;
42724;SDS011;28369;44.046;23.014;2022-08-21T10:03:42;11.38;;;5.63;;
42724;SDS011;28369;44.046;23.014;2022-08-21T10:06:08;10.70;;;4.93;;
42724;SDS011;28369;44.046;23.014;2022-08-21T10:08:39;11.10;;;5.90;;
42724;SDS011;28369;44.046;23.014;2022-08-21T10:11:07;7.15;;;4.95;;
42724;SDS011;28369;44.046;23.014;2022-08-21T10:13:41;12.60;;;6.07;;
42724;SDS011;28369;44.046;23.014;2022-08-21T10:16:28;9.10;;;5.38;;
42724;SDS011;28369;44.046;23.014;2022-08-21T10:30:12;8.25;;;5.53;;
42724;SDS011;28369;44.046;23.014;2022-08-21T10:35:24;8.30;;;5.32;;
42724;SDS011;28369;44.046;23.014;2022-08-21T10:49:05;11.88;;;5.38;;
42724;SDS011;28369;44.046;23.014;2022-08-21T10:55:04;12.25;;;5.68;;
42724;SDS011;28369;44.046;23.014;2022-08-21T10:57:41;11.65;;;5.35;;
42724;SDS011;28369;44.046;23.014;2022-08-21T11:00:26;9.13;;;5.00;;
42724;SDS011;28369;44.046;23.014;2022-08-21T11:03:16;8.48;;;5.03;;
42724;SDS011;28369;44.046;23.014;2022-08-21T11:08:36;14.95;;;6.00;;
42724;SDS011;28369;44.046;23.014;2022-08-21T11:14:32;8.20;;;5.13;;
42724;SDS011;28369;44.046;23.014;2022-08-21T11:17:09;9.93;;;5.95;;
42724;SDS011;28369;44.046;23.014;2022-08-21T11:22:46;10.30;;;5.20;;
42724;SDS011;28369;44.046;23.014;2022-08-21T11:25:21;10.35;;;5.50;;
42724;SDS011;28369;44.046;23.014;2022-08-21T11:27:54;9.75;;;5.65;;
42724;SDS011;28369;44.046;23.014;2022-08-21T11:30:27;10.25;;;6.57;;
42724;SDS011;28369;44.046;23.014;2022-08-21T11:35:57;11.32;;;5.78;;
42724;SDS011;28369;44.046;23.014;2022-08-21T11:41:28;11.02;;;5.82;;
42724;SDS011;28369;44.046;23.014;2022-08-21T11:44:00;11.15;;;5.38;;
42724;SDS011;28369;44.046;23.014;2022-08-21T11:46:45;11.65;;;5.55;;
42724;SDS011;28369;44.046;23.014;2022-08-21T11:49:25;10.73;;;5.57;;
42724;SDS011;28369;44.046;23.014;2022-08-21T11:52:29;11.75;;;5.82;;
42724;SDS011;28369;44.046;23.014;2022-08-21T11:55:06;12.38;;;6.20;;
42724;SDS011;28369;44.046;23.014;2022-08-21T12:00:20;11.65;;;5.60;;
42724;SDS011;28369;44.046;23.014;2022-08-21T12:02:55;14.02;;;5.45;;
42724;SDS011;28369;44.046;23.014;2022-08-21T12:05:31;7.40;;;5.47;;
42724;SDS011;28369;44.046;23.014;2022-08-21T12:11:07;8.52;;;4.88;;
42724;SDS011;28369;44.046;23.014;2022-08-21T12:13:36;10.55;;;5.60;;
42724;SDS011;28369;44.046;23.014;2022-08-21T12:16:06;7.53;;;4.75;;
42724;SDS011;28369;44.046;23.014;2022-08-21T12:18:33;9.45;;;4.82;;
42724;SDS011;28369;44.046;23.014;2022-08-21T12:23:31;9.27;;;4.30;;
42724;SDS011;28369;44.046;23.014;2022-08-21T12:31:20;8.27;;;3.53;;
42724;SDS011;28369;44.046;23.014;2022-08-21T12:33:54;6.43;;;2.90;;
42724;SDS011;28369;44.046;23.014;2022-08-21T12:36:24;4.22;;;2.42;;
42724;SDS011;28369;44.046;23.014;2022-08-21T12:41:33;3.05;;;2.42;;
42724;SDS011;28369;44.046;23.014;2022-08-21T12:44:15;4.53;;;2.22;;
42724;SDS011;28369;44.046;23.014;2022-08-21T12:49:30;3.95;;;2.30;;
42724;SDS011;28369;44.046;23.014;2022-08-21T12:52:28;6.07;;;2.30;;
42724;SDS011;28369;44.046;23.014;2022-08-21T12:54:57;3.67;;;1.90;;
42724;SDS011;28369;44.046;23.014;2022-08-21T12:57:24;3.55;;;2.03;;
42724;SDS011;28369;44.046;23.014;2022-08-21T12:59:59;2.85;;;1.73;;
42724;SDS011;28369;44.046;23.014;2022-08-21T13:02:33;3.83;;;1.83;;
42724;SDS011;28369;44.046;23.014;2022-08-21T13:05:05;2.47;;;1.80;;
42724;SDS011;28369;44.046;23.014;2022-08-21T13:07:35;6.88;;;2.83;;
42724;SDS011;28369;44.046;23.014;2022-08-21T13:10:06;6.00;;;2.80;;
42724;SDS011;28369;44.046;23.014;2022-08-21T13:12:53;5.90;;;2.88;;
42724;SDS011;28369;44.046;23.014;2022-08-21T13:15:22;4.57;;;3.10;;
42724;SDS011;28369;44.046;23.014;2022-08-21T13:17:51;8.18;;;3.22;;
42724;SDS011;28369;44.046;23.014;2022-08-21T13:20:24;6.50;;;3.30;;
42724;SDS011;28369;44.046;23.014;2022-08-21T13:22:53;3.88;;;3.20;;
42724;SDS011;28369;44.046;23.014;2022-08-21T13:25:19;3.47;;;3.17;;
42724;SDS011;28369;44.046;23.014;2022-08-21T13:28:00;6.07;;;3.60;;
42724;SDS011;28369;44.046;23.014;2022-08-21T13:30:32;8.40;;;3.75;;
42724;SDS011;28369;44.046;23.014;2022-08-21T13:33:04;8.25;;;4.25;;
42724;SDS011;28369;44.046;23.014;2022-08-21T13:35:50;12.85;;;4.38;;
42724;SDS011;28369;44.046;23.014;2022-08-21T13:38:22;11.43;;;4.68;;
42724;SDS011;28369;44.046;23.014;2022-08-21T13:40:55;7.78;;;4.60;;
42724;SDS011;28369;44.046;23.014;2022-08-21T13:43:28;12.50;;;4.90;;
42724;SDS011;28369;44.046;23.014;2022-08-21T13:45:58;14.02;;;5.10;;
42724;SDS011;28369;44.046;23.014;2022-08-21T13:48:25;12.73;;;5.18;;
42724;SDS011;28369;44.046;23.014;2022-08-21T13:50:55;10.98;;;5.65;;
42724;SDS011;28369;44.046;23.014;2022-08-21T13:53:32;11.43;;;6.38;;
42724;SDS011;28369;44.046;23.014;2022-08-21T13:56:10;7.82;;;5.45;;
42724;SDS011;28369;44.046;23.014;2022-08-21T13:58:52;10.25;;;5.85;;
42724;SDS011;28369;44.046;23.014;2022-08-21T14:01:21;36.30;;;27.75;;
42724;SDS011;28369;44.046;23.014;2022-08-21T14:03:50;7.43;;;4.65;;
42724;SDS011;28369;44.046;23.014;2022-08-21T14:06:23;11.43;;;4.95;;
42724;SDS011;28369;44.046;23.014;2022-08-21T14:08:56;10.30;;;4.60;;
42724;SDS011;28369;44.046;23.014;2022-08-21T14:11:27;16.23;;;5.50;;
42724;SDS011;28369;44.046;23.014;2022-08-21T14:14:00;7.70;;;4.28;;
42724;SDS011;28369;44.046;23.014;2022-08-21T14:16:40;10.03;;;5.17;;
42724;SDS011;28369;44.046;23.014;2022-08-21T14:19:18;6.40;;;4.35;;
42724;SDS011;28369;44.046;23.014;2022-08-21T14:21:49;10.20;;;7.88;;
42724;SDS011;28369;44.046;23.014;2022-08-21T14:26:49;38.92;;;34.97;;
42724;SDS011;28369;44.046;23.014;2022-08-21T14:31:49;8.25;;;5.22;;
42724;SDS011;28369;44.046;23.014;2022-08-21T14:34:18;9.40;;;5.07;;
42724;SDS011;28369;44.046;23.014;2022-08-21T14:36:44;8.48;;;5.47;;
42724;SDS011;28369;44.046;23.014;2022-08-21T14:39:10;6.57;;;5.15;;
42724;SDS011;28369;44.046;23.014;2022-08-21T14:41:36;7.85;;;5.00;;
42724;SDS011;28369;44.046;23.014;2022-08-21T14:44:02;7.75;;;5.60;;
42724;SDS011;28369;44.046;23.014;2022-08-21T14:46:30;6.93;;;5.25;;
42724;SDS011;28369;44.046;23.014;2022-08-21T14:49:00;7.00;;;4.90;;
42724;SDS011;28369;44.046;23.014;2022-08-21T14:51:27;9.13;;;4.85;;
42724;SDS011;28369;44.046;23.014;2022-08-21T14:53:53;6.90;;;4.50;;
42724;SDS011;28369;44.046;23.014;2022-08-21T14:56:18;7.85;;;4.65;;
42724;SDS011;28369;44.046;23.014;2022-08-21T14:58:45;7.97;;;6.45;;
42724;SDS011;28369;44.046;23.014;2022-08-21T15:01:21;8.57;;;5.20;;
42724;SDS011;28369;44.046;23.014;2022-08-21T15:03:47;15.15;;;10.80;;
42724;SDS011;28369;44.046;23.014;2022-08-21T15:06:13;8.57;;;6.15;;
42724;SDS011;28369;44.046;23.014;2022-08-21T15:08:40;9.32;;;6.60;;
42724;SDS011;28369;44.046;23.014;2022-08-21T15:11:06;12.48;;;7.45;;
42724;SDS011;28369;44.046;23.014;2022-08-21T15:13:33;10.55;;;7.75;;
42724;SDS011;28369;44.046;23.014;2022-08-21T15:16:01;13.77;;;8.05;;
42724;SDS011;28369;44.046;23.014;2022-08-21T15:18:28;13.25;;;8.07;;
42724;SDS011;28369;44.046;23.014;2022-08-21T15:20:54;12.45;;;9.45;;
42724;SDS011;28369;44.046;23.014;2022-08-21T15:23:21;13.23;;;10.57;;
42724;SDS011;28369;44.046;23.014;2022-08-21T15:25:48;13.02;;;10.75;;
42724;SDS011;28369;44.046;23.014;2022-08-21T15:28:15;19.23;;;15.57;;
42724;SDS011;28369;44.046;23.014;2022-08-21T15:30:42;15.13;;;12.10;;
42724;SDS011;28369;44.046;23.014;2022-08-21T15:33:09;19.63;;;14.55;;
42724;SDS011;28369;44.046;23.014;2022-08-21T15:35:35;17.30;;;13.52;;
42724;SDS011;28369;44.046;23.014;2022-08-21T15:38:01;14.05;;;10.82;;
42724;SDS011;28369;44.046;23.014;2022-08-21T15:40:27;10.68;;;9.57;;
42724;SDS011;28369;44.046;23.014;2022-08-21T15:42:57;10.52;;;8.15;;
42724;SDS011;28369;44.046;23.014;2022-08-21T15:45:26;9.68;;;8.38;;
42724;SDS011;28369;44.046;23.014;2022-08-21T15:47:52;13.70;;;8.15;;
42724;SDS011;28369;44.046;23.014;2022-08-21T15:50:19;14.23;;;11.52;;
42724;SDS011;28369;44.046;23.014;2022-08-21T15:52:46;13.75;;;10.48;;
42724;SDS011;28369;44.046;23.014;2022-08-21T15:55:11;19.92;;;16.13;;
42724;SDS011;28369;44.046;23.014;2022-08-21T15:57:37;11.23;;;9.40;;
42724;SDS011;28369;44.046;23.014;2022-08-21T16:00:25;9.95;;;8.23;;
42724;SDS011;28369;44.046;23.014;2022-08-21T16:02:59;10.52;;;8.35;;
42724;SDS011;28369;44.046;23.014;2022-08-21T16:05:25;10.85;;;8.52;;
42724;SDS011;28369;44.046;23.014;2022-08-21T16:07:51;12.32;;;8.73;;
42724;SDS011;28369;44.046;23.014;2022-08-21T16:10:19;10.60;;;8.68;;
42724;SDS011;28369;44.046;23.014;2022-08-21T16:12:50;17.77;;;15.93;;